sensor_id;sensor_type;location;lat;lon;timestamp;P1;durP1;ratioP1;P2;durP2;ratioP2
12445;SDS011;6287;50.984;7.022;2022-10-10T00:01:36;1.83;;;1.73;;
12445;SDS011;6287;50.984;7.022;2022-10-10T00:04:19;2.40;;;1.93;;
12445;SDS011;6287;50.984;7.022;2022-10-10T00:06:45;2.27;;;1.63;;
12445;SDS011;6287;50.984;7.022;2022-10-10T00:09:13;1.60;;;1.50;;
12445;SDS011;6287;50.984;7.022;2022-10-10T00:11:45;3.10;;;1.80;;
12445;SDS011;6287;50.984;7.022;2022-10-10T00:14:11;1.47;;;1.47;;
12445;SDS011;6287;50.984;7.022;2022-10-10T00:16:39;1.87;;;1.77;;
12445;SDS011;6287;50.984;7.022;2022-10-10T00:19:07;2.17;;;1.97;;
12445;SDS011;6287;50.984;7.022;2022-10-10T00:21:36;2.67;;;1.60;;
12445;SDS011;6287;50.984;7.022;2022-10-10T00:24:06;2.20;;;1.83;;
12445;SDS011;6287;50.984;7.022;2022-10-10T00:26:32;2.60;;;1.80;;
12445;SDS011;6287;50.984;7.022;2022-10-10T00:29:00;3.63;;;1.90;;
12445;SDS011;6287;50.984;7.022;2022-10-10T00:31:36;2.53;;;1.70;;
12445;SDS011;6287;50.984;7.022;2022-10-10T00:34:17;1.90;;;1.80;;
12445;SDS011;6287;50.984;7.022;2022-10-10T00:36:44;2.20;;;1.90;;
12445;SDS011;6287;50.984;7.022;2022-10-10T00:39:10;2.70;;;2.07;;
12445;SDS011;6287;50.984;7.022;2022-10-10T00:41:36;2.17;;;1.80;;
12445;SDS011;6287;50.984;7.022;2022-10-10T00:44:12;2.00;;;1.80;;
12445;SDS011;6287;50.984;7.022;2022-10-10T00:46:41;2.30;;;2.10;;
12445;SDS011;6287;50.984;7.022;2022-10-10T00:49:28;3.00;;;1.87;;
12445;SDS011;6287;50.984;7.022;2022-10-10T00:51:57;2.00;;;1.90;;
12445;SDS011;6287;50.984;7.022;2022-10-10T00:54:24;3.77;;;2.10;;
12445;SDS011;6287;50.984;7.022;2022-10-10T00:57:07;3.13;;;2.17;;
12445;SDS011;6287;50.984;7.022;2022-10-10T00:59:51;2.20;;;2.00;;
12445;SDS011;6287;50.984;7.022;2022-10-10T01:02:29;2.40;;;1.80;;
12445;SDS011;6287;50.984;7.022;2022-10-10T01:04:57;1.93;;;1.80;;
12445;SDS011;6287;50.984;7.022;2022-10-10T01:07:27;2.00;;;1.80;;
12445;SDS011;6287;50.984;7.022;2022-10-10T01:09:58;1.97;;;1.77;;
12445;SDS011;6287;50.984;7.022;2022-10-10T01:17:53;1.87;;;1.67;;
12445;SDS011;6287;50.984;7.022;2022-10-10T01:20:47;2.00;;;1.83;;
12445;SDS011;6287;50.984;7.022;2022-10-10T01:29:07;1.87;;;1.77;;
12445;SDS011;6287;50.984;7.022;2022-10-10T01:31:43;2.20;;;2.00;;
12445;SDS011;6287;50.984;7.022;2022-10-10T01:34:19;2.60;;;1.60;;
12445;SDS011;6287;50.984;7.022;2022-10-10T01:39:57;1.60;;;1.57;;
12445;SDS011;6287;50.984;7.022;2022-10-10T01:42:30;2.77;;;1.60;;
12445;SDS011;6287;50.984;7.022;2022-10-10T01:44:59;2.60;;;1.90;;
12445;SDS011;6287;50.984;7.022;2022-10-10T01:47:28;4.10;;;1.83;;
12445;SDS011;6287;50.984;7.022;2022-10-10T01:49:55;1.90;;;1.50;;
12445;SDS011;6287;50.984;7.022;2022-10-10T01:55:18;1.90;;;1.77;;
12445;SDS011;6287;50.984;7.022;2022-10-10T02:01:05;2.23;;;2.03;;
12445;SDS011;6287;50.984;7.022;2022-10-10T02:03:36;1.67;;;1.40;;
12445;SDS011;6287;50.984;7.022;2022-10-10T02:06:21;1.73;;;1.60;;
12445;SDS011;6287;50.984;7.022;2022-10-10T02:08:53;4.20;;;1.77;;
12445;SDS011;6287;50.984;7.022;2022-10-10T02:11:29;3.57;;;1.57;;
12445;SDS011;6287;50.984;7.022;2022-10-10T02:14:01;1.70;;;1.60;;
12445;SDS011;6287;50.984;7.022;2022-10-10T02:16:36;1.90;;;1.60;;
12445;SDS011;6287;50.984;7.022;2022-10-10T02:19:08;1.57;;;1.47;;
12445;SDS011;6287;50.984;7.022;2022-10-10T02:21:37;2.47;;;1.60;;
12445;SDS011;6287;50.984;7.022;2022-10-10T02:24:07;1.43;;;1.33;;
12445;SDS011;6287;50.984;7.022;2022-10-10T02:26:35;1.67;;;1.53;;
12445;SDS011;6287;50.984;7.022;2022-10-10T02:29:08;1.80;;;1.70;;
12445;SDS011;6287;50.984;7.022;2022-10-10T02:34:24;1.63;;;1.53;;
12445;SDS011;6287;50.984;7.022;2022-10-10T02:36:57;2.33;;;1.40;;
12445;SDS011;6287;50.984;7.022;2022-10-10T02:39:29;1.63;;;1.53;;
12445;SDS011;6287;50.984;7.022;2022-10-10T02:42:04;1.60;;;1.50;;
12445;SDS011;6287;50.984;7.022;2022-10-10T02:44:36;2.00;;;1.80;;
12445;SDS011;6287;50.984;7.022;2022-10-10T02:47:06;1.63;;;1.53;;
12445;SDS011;6287;50.984;7.022;2022-10-10T02:49:33;2.00;;;1.60;;
12445;SDS011;6287;50.984;7.022;2022-10-10T02:52:03;1.93;;;1.60;;
12445;SDS011;6287;50.984;7.022;2022-10-10T02:54:29;2.23;;;1.80;;
12445;SDS011;6287;50.984;7.022;2022-10-10T02:56:57;1.37;;;1.30;;
12445;SDS011;6287;50.984;7.022;2022-10-10T02:59:33;3.77;;;1.80;;
12445;SDS011;6287;50.984;7.022;2022-10-10T03:02:01;1.53;;;1.53;;
12445;SDS011;6287;50.984;7.022;2022-10-10T03:04:33;1.90;;;1.80;;
12445;SDS011;6287;50.984;7.022;2022-10-10T03:07:00;2.30;;;1.63;;
12445;SDS011;6287;50.984;7.022;2022-10-10T03:09:30;1.60;;;1.50;;
12445;SDS011;6287;50.984;7.022;2022-10-10T03:12:26;2.33;;;1.67;;
12445;SDS011;6287;50.984;7.022;2022-10-10T03:15:03;1.60;;;1.50;;
12445;SDS011;6287;50.984;7.022;2022-10-10T03:17:29;1.70;;;1.60;;
12445;SDS011;6287;50.984;7.022;2022-10-10T03:20:10;3.33;;;1.80;;
12445;SDS011;6287;50.984;7.022;2022-10-10T03:22:45;2.87;;;1.50;;
12445;SDS011;6287;50.984;7.022;2022-10-10T03:25:12;1.60;;;1.50;;
12445;SDS011;6287;50.984;7.022;2022-10-10T03:27:39;1.73;;;1.57;;
12445;SDS011;6287;50.984;7.022;2022-10-10T03:30:08;1.73;;;1.57;;
12445;SDS011;6287;50.984;7.022;2022-10-10T03:32:38;1.60;;;1.50;;
12445;SDS011;6287;50.984;7.022;2022-10-10T03:35:10;1.70;;;1.60;;
12445;SDS011;6287;50.984;7.022;2022-10-10T03:37:37;2.20;;;1.50;;
12445;SDS011;6287;50.984;7.022;2022-10-10T03:40:05;1.50;;;1.40;;
12445;SDS011;6287;50.984;7.022;2022-10-10T03:42:31;1.60;;;1.50;;
12445;SDS011;6287;50.984;7.022;2022-10-10T03:45:00;2.93;;;1.77;;
12445;SDS011;6287;50.984;7.022;2022-10-10T03:47:27;1.93;;;1.50;;
12445;SDS011;6287;50.984;7.022;2022-10-10T03:49:57;1.50;;;1.40;;
12445;SDS011;6287;50.984;7.022;2022-10-10T03:52:24;1.47;;;1.37;;
12445;SDS011;6287;50.984;7.022;2022-10-10T03:55:02;2.00;;;1.50;;
12445;SDS011;6287;50.984;7.022;2022-10-10T03:57:33;3.10;;;1.70;;
12445;SDS011;6287;50.984;7.022;2022-10-10T04:00:04;1.53;;;1.43;;
12445;SDS011;6287;50.984;7.022;2022-10-10T04:02:32;1.60;;;1.40;;
12445;SDS011;6287;50.984;7.022;2022-10-10T04:05:03;1.70;;;1.60;;
12445;SDS011;6287;50.984;7.022;2022-10-10T04:07:31;1.40;;;1.30;;
12445;SDS011;6287;50.984;7.022;2022-10-10T04:10:03;1.60;;;1.50;;
12445;SDS011;6287;50.984;7.022;2022-10-10T04:12:32;1.80;;;1.70;;
12445;SDS011;6287;50.984;7.022;2022-10-10T04:14:59;1.77;;;1.60;;
12445;SDS011;6287;50.984;7.022;2022-10-10T04:17:27;2.57;;;1.53;;
12445;SDS011;6287;50.984;7.022;2022-10-10T04:19:58;1.70;;;1.60;;
12445;SDS011;6287;50.984;7.022;2022-10-10T04:22:29;2.50;;;1.80;;
12445;SDS011;6287;50.984;7.022;2022-10-10T04:24:55;2.20;;;1.63;;
12445;SDS011;6287;50.984;7.022;2022-10-10T04:27:27;6.13;;;1.87;;
12445;SDS011;6287;50.984;7.022;2022-10-10T04:30:00;1.80;;;1.60;;
12445;SDS011;6287;50.984;7.022;2022-10-10T04:32:31;1.87;;;1.70;;
12445;SDS011;6287;50.984;7.022;2022-10-10T04:34:58;2.03;;;1.87;;
12445;SDS011;6287;50.984;7.022;2022-10-10T04:37:26;1.97;;;1.60;;
12445;SDS011;6287;50.984;7.022;2022-10-10T04:39:56;2.40;;;1.70;;
12445;SDS011;6287;50.984;7.022;2022-10-10T04:42:22;2.07;;;1.87;;
12445;SDS011;6287;50.984;7.022;2022-10-10T04:44:53;1.93;;;1.83;;
12445;SDS011;6287;50.984;7.022;2022-10-10T04:47:27;1.83;;;1.63;;
12445;SDS011;6287;50.984;7.022;2022-10-10T04:49:57;1.80;;;1.70;;
12445;SDS011;6287;50.984;7.022;2022-10-10T04:52:23;3.10;;;1.90;;
12445;SDS011;6287;50.984;7.022;2022-10-10T04:54:54;3.40;;;2.37;;
12445;SDS011;6287;50.984;7.022;2022-10-10T04:57:25;3.17;;;1.93;;
12445;SDS011;6287;50.984;7.022;2022-10-10T04:59:52;2.23;;;2.00;;
12445;SDS011;6287;50.984;7.022;2022-10-10T05:02:30;1.90;;;1.80;;
12445;SDS011;6287;50.984;7.022;2022-10-10T05:05:05;2.97;;;1.80;;
12445;SDS011;6287;50.984;7.022;2022-10-10T05:07:35;3.50;;;1.90;;
12445;SDS011;6287;50.984;7.022;2022-10-10T05:10:03;1.93;;;1.80;;
12445;SDS011;6287;50.984;7.022;2022-10-10T05:12:35;1.73;;;1.63;;
12445;SDS011;6287;50.984;7.022;2022-10-10T05:15:23;3.00;;;1.90;;
12445;SDS011;6287;50.984;7.022;2022-10-10T05:17:54;2.00;;;1.80;;
12445;SDS011;6287;50.984;7.022;2022-10-10T05:20:23;3.63;;;2.00;;
12445;SDS011;6287;50.984;7.022;2022-10-10T05:22:53;1.93;;;1.53;;
12445;SDS011;6287;50.984;7.022;2022-10-10T05:25:24;2.40;;;2.20;;
12445;SDS011;6287;50.984;7.022;2022-10-10T05:27:51;2.13;;;1.80;;
12445;SDS011;6287;50.984;7.022;2022-10-10T05:30:18;1.87;;;1.77;;
12445;SDS011;6287;50.984;7.022;2022-10-10T05:32:51;2.00;;;1.80;;
12445;SDS011;6287;50.984;7.022;2022-10-10T05:35:22;3.33;;;2.47;;
12445;SDS011;6287;50.984;7.022;2022-10-10T05:37:53;3.37;;;2.43;;
12445;SDS011;6287;50.984;7.022;2022-10-10T05:41:04;3.07;;;1.97;;
12445;SDS011;6287;50.984;7.022;2022-10-10T05:43:54;2.67;;;2.30;;
12445;SDS011;6287;50.984;7.022;2022-10-10T05:46:28;3.00;;;2.20;;
12445;SDS011;6287;50.984;7.022;2022-10-10T05:49:09;3.13;;;2.40;;
12445;SDS011;6287;50.984;7.022;2022-10-10T05:51:41;2.07;;;1.93;;
12445;SDS011;6287;50.984;7.022;2022-10-10T05:54:17;2.43;;;2.23;;
12445;SDS011;6287;50.984;7.022;2022-10-10T05:57:04;2.40;;;2.17;;
12445;SDS011;6287;50.984;7.022;2022-10-10T05:59:33;3.00;;;2.50;;
12445;SDS011;6287;50.984;7.022;2022-10-10T06:02:05;2.70;;;2.23;;
12445;SDS011;6287;50.984;7.022;2022-10-10T06:04:37;2.07;;;1.93;;
12445;SDS011;6287;50.984;7.022;2022-10-10T06:07:15;2.00;;;1.90;;
12445;SDS011;6287;50.984;7.022;2022-10-10T06:09:42;3.33;;;2.00;;
12445;SDS011;6287;50.984;7.022;2022-10-10T06:12:09;3.27;;;2.40;;
12445;SDS011;6287;50.984;7.022;2022-10-10T06:15:00;2.27;;;2.07;;
12445;SDS011;6287;50.984;7.022;2022-10-10T06:18:15;2.50;;;2.30;;
12445;SDS011;6287;50.984;7.022;2022-10-10T06:21:45;7.67;;;5.00;;
12445;SDS011;6287;50.984;7.022;2022-10-10T06:24:20;2.50;;;2.30;;
12445;SDS011;6287;50.984;7.022;2022-10-10T06:26:48;2.27;;;2.07;;
12445;SDS011;6287;50.984;7.022;2022-10-10T06:29:16;2.40;;;2.20;;
12445;SDS011;6287;50.984;7.022;2022-10-10T06:31:42;2.40;;;2.20;;
12445;SDS011;6287;50.984;7.022;2022-10-10T06:34:10;4.40;;;2.53;;
12445;SDS011;6287;50.984;7.022;2022-10-10T06:36:35;2.33;;;2.13;;
12445;SDS011;6287;50.984;7.022;2022-10-10T06:39:01;4.63;;;2.50;;
12445;SDS011;6287;50.984;7.022;2022-10-10T06:41:26;2.63;;;2.43;;
12445;SDS011;6287;50.984;7.022;2022-10-10T06:43:55;4.77;;;2.03;;
12445;SDS011;6287;50.984;7.022;2022-10-10T06:46:23;3.20;;;2.40;;
12445;SDS011;6287;50.984;7.022;2022-10-10T06:48:48;2.17;;;1.90;;
12445;SDS011;6287;50.984;7.022;2022-10-10T06:51:16;4.90;;;2.33;;
12445;SDS011;6287;50.984;7.022;2022-10-10T06:53:43;3.73;;;2.03;;
12445;SDS011;6287;50.984;7.022;2022-10-10T06:56:12;4.80;;;2.00;;
12445;SDS011;6287;50.984;7.022;2022-10-10T06:58:47;2.03;;;1.83;;
12445;SDS011;6287;50.984;7.022;2022-10-10T07:01:19;4.77;;;2.10;;
12445;SDS011;6287;50.984;7.022;2022-10-10T07:03:52;2.73;;;2.30;;
12445;SDS011;6287;50.984;7.022;2022-10-10T07:06:17;3.90;;;2.13;;
12445;SDS011;6287;50.984;7.022;2022-10-10T07:08:44;3.00;;;1.90;;
12445;SDS011;6287;50.984;7.022;2022-10-10T07:11:10;2.90;;;2.20;;
12445;SDS011;6287;50.984;7.022;2022-10-10T07:13:38;2.60;;;1.90;;
12445;SDS011;6287;50.984;7.022;2022-10-10T07:16:09;2.57;;;2.00;;
12445;SDS011;6287;50.984;7.022;2022-10-10T07:18:37;2.70;;;2.00;;
12445;SDS011;6287;50.984;7.022;2022-10-10T07:21:04;2.27;;;1.90;;
12445;SDS011;6287;50.984;7.022;2022-10-10T07:23:30;4.10;;;1.90;;
12445;SDS011;6287;50.984;7.022;2022-10-10T07:25:57;2.93;;;2.00;;
12445;SDS011;6287;50.984;7.022;2022-10-10T07:28:25;2.47;;;2.27;;
12445;SDS011;6287;50.984;7.022;2022-10-10T07:30:57;3.60;;;2.17;;
12445;SDS011;6287;50.984;7.022;2022-10-10T07:33:30;2.27;;;2.00;;
12445;SDS011;6287;50.984;7.022;2022-10-10T07:35:57;1.93;;;1.77;;
12445;SDS011;6287;50.984;7.022;2022-10-10T07:38:25;2.47;;;1.70;;
12445;SDS011;6287;50.984;7.022;2022-10-10T07:40:53;3.57;;;1.97;;
12445;SDS011;6287;50.984;7.022;2022-10-10T07:43:19;2.00;;;1.80;;
12445;SDS011;6287;50.984;7.022;2022-10-10T07:45:46;4.17;;;1.83;;
12445;SDS011;6287;50.984;7.022;2022-10-10T07:48:17;3.20;;;1.90;;
12445;SDS011;6287;50.984;7.022;2022-10-10T07:50:55;3.53;;;2.07;;
12445;SDS011;6287;50.984;7.022;2022-10-10T07:53:21;2.33;;;1.73;;
12445;SDS011;6287;50.984;7.022;2022-10-10T07:55:52;2.27;;;2.07;;
12445;SDS011;6287;50.984;7.022;2022-10-10T07:58:17;2.87;;;2.43;;
12445;SDS011;6287;50.984;7.022;2022-10-10T08:00:45;2.97;;;2.33;;
12445;SDS011;6287;50.984;7.022;2022-10-10T08:03:13;2.33;;;2.10;;
12445;SDS011;6287;50.984;7.022;2022-10-10T08:05:42;3.03;;;2.33;;
12445;SDS011;6287;50.984;7.022;2022-10-10T08:08:11;3.10;;;2.20;;
12445;SDS011;6287;50.984;7.022;2022-10-10T08:10:41;4.43;;;2.60;;
12445;SDS011;6287;50.984;7.022;2022-10-10T08:13:09;4.40;;;2.63;;
12445;SDS011;6287;50.984;7.022;2022-10-10T08:15:40;2.73;;;2.20;;
12445;SDS011;6287;50.984;7.022;2022-10-10T08:18:08;3.13;;;2.10;;
12445;SDS011;6287;50.984;7.022;2022-10-10T08:20:35;3.30;;;2.20;;
12445;SDS011;6287;50.984;7.022;2022-10-10T08:23:05;4.57;;;2.30;;
12445;SDS011;6287;50.984;7.022;2022-10-10T08:25:31;4.90;;;2.27;;
12445;SDS011;6287;50.984;7.022;2022-10-10T08:27:56;3.73;;;2.50;;
12445;SDS011;6287;50.984;7.022;2022-10-10T08:30:24;3.63;;;2.33;;
12445;SDS011;6287;50.984;7.022;2022-10-10T08:32:49;4.73;;;2.17;;
12445;SDS011;6287;50.984;7.022;2022-10-10T08:35:17;3.40;;;2.37;;
12445;SDS011;6287;50.984;7.022;2022-10-10T08:37:43;2.60;;;2.40;;
12445;SDS011;6287;50.984;7.022;2022-10-10T08:40:10;2.40;;;2.20;;
12445;SDS011;6287;50.984;7.022;2022-10-10T08:42:44;3.10;;;2.00;;
12445;SDS011;6287;50.984;7.022;2022-10-10T08:45:18;3.40;;;2.40;;
12445;SDS011;6287;50.984;7.022;2022-10-10T08:47:57;4.07;;;2.30;;
12445;SDS011;6287;50.984;7.022;2022-10-10T08:50:30;4.43;;;2.47;;
12445;SDS011;6287;50.984;7.022;2022-10-10T08:53:23;3.10;;;2.40;;
12445;SDS011;6287;50.984;7.022;2022-10-10T08:56:00;3.17;;;2.47;;
12445;SDS011;6287;50.984;7.022;2022-10-10T08:58:32;4.23;;;2.60;;
12445;SDS011;6287;50.984;7.022;2022-10-10T09:01:06;4.87;;;2.93;;
12445;SDS011;6287;50.984;7.022;2022-10-10T09:03:45;4.07;;;2.63;;
12445;SDS011;6287;50.984;7.022;2022-10-10T09:12:24;3.80;;;2.47;;
12445;SDS011;6287;50.984;7.022;2022-10-10T09:18:09;4.17;;;2.40;;
12445;SDS011;6287;50.984;7.022;2022-10-10T09:20:47;5.40;;;2.73;;
12445;SDS011;6287;50.984;7.022;2022-10-10T09:23:22;6.97;;;2.77;;
12445;SDS011;6287;50.984;7.022;2022-10-10T09:25:52;3.30;;;3.00;;
12445;SDS011;6287;50.984;7.022;2022-10-10T09:28:41;4.27;;;2.70;;
12445;SDS011;6287;50.984;7.022;2022-10-10T09:37:57;2.67;;;2.47;;
12445;SDS011;6287;50.984;7.022;2022-10-10T09:40:49;3.15;;;2.25;;
12445;SDS011;6287;50.984;7.022;2022-10-10T09:43:20;3.22;;;2.40;;
12445;SDS011;6287;50.984;7.022;2022-10-10T09:48:26;2.90;;;2.60;;
12445;SDS011;6287;50.984;7.022;2022-10-10T09:50:57;2.97;;;2.67;;
12445;SDS011;6287;50.984;7.022;2022-10-10T09:53:27;3.65;;;2.25;;
12445;SDS011;6287;50.984;7.022;2022-10-10T09:56:15;3.65;;;2.15;;
12445;SDS011;6287;50.984;7.022;2022-10-10T09:58:47;3.72;;;1.90;;
12445;SDS011;6287;50.984;7.022;2022-10-10T10:06:48;2.20;;;1.95;;
12445;SDS011;6287;50.984;7.022;2022-10-10T10:09:20;2.10;;;1.90;;
12445;SDS011;6287;50.984;7.022;2022-10-10T10:11:54;5.90;;;2.00;;
12445;SDS011;6287;50.984;7.022;2022-10-10T10:14:30;2.78;;;1.98;;
12445;SDS011;6287;50.984;7.022;2022-10-10T10:17:14;3.67;;;1.95;;
12445;SDS011;6287;50.984;7.022;2022-10-10T10:19:45;2.05;;;1.60;;
12445;SDS011;6287;50.984;7.022;2022-10-10T10:25:26;2.72;;;1.50;;
12445;SDS011;6287;50.984;7.022;2022-10-10T10:28:41;3.67;;;1.65;;
12445;SDS011;6287;50.984;7.022;2022-10-10T10:30:48;2.95;;;2.00;;
12445;SDS011;6287;50.984;7.022;2022-10-10T10:44:33;1.30;;;1.20;;
12445;SDS011;6287;50.984;7.022;2022-10-10T10:47:36;1.95;;;1.48;;
12445;SDS011;6287;50.984;7.022;2022-10-10T10:50:16;1.98;;;1.40;;
12445;SDS011;6287;50.984;7.022;2022-10-10T10:55:37;1.90;;;1.70;;
12445;SDS011;6287;50.984;7.022;2022-10-10T10:58:43;1.92;;;1.52;;
12445;SDS011;6287;50.984;7.022;2022-10-10T11:01:18;2.30;;;1.58;;
12445;SDS011;6287;50.984;7.022;2022-10-10T11:03:59;2.03;;;1.48;;
12445;SDS011;6287;50.984;7.022;2022-10-10T11:19:54;2.75;;;1.75;;
12445;SDS011;6287;50.984;7.022;2022-10-10T11:22:28;1.58;;;1.48;;
12445;SDS011;6287;50.984;7.022;2022-10-10T11:25:02;1.85;;;1.23;;
12445;SDS011;6287;50.984;7.022;2022-10-10T11:27:38;1.63;;;1.50;;
12445;SDS011;6287;50.984;7.022;2022-10-10T11:30:19;2.83;;;1.27;;
12445;SDS011;6287;50.984;7.022;2022-10-10T11:35:24;2.80;;;1.40;;
12445;SDS011;6287;50.984;7.022;2022-10-10T11:37:59;4.88;;;1.38;;
12445;SDS011;6287;50.984;7.022;2022-10-10T11:43:47;1.63;;;1.02;;
12445;SDS011;6287;50.984;7.022;2022-10-10T11:49:34;1.83;;;1.67;;
12445;SDS011;6287;50.984;7.022;2022-10-10T11:52:19;1.77;;;1.30;;
12445;SDS011;6287;50.984;7.022;2022-10-10T11:55:08;2.70;;;1.55;;
12445;SDS011;6287;50.984;7.022;2022-10-10T11:57:45;1.85;;;1.38;;
12445;SDS011;6287;50.984;7.022;2022-10-10T12:00:18;3.65;;;1.58;;
12445;SDS011;6287;50.984;7.022;2022-10-10T12:02:44;2.30;;;1.33;;
12445;SDS011;6287;50.984;7.022;2022-10-10T12:05:24;3.83;;;1.35;;
12445;SDS011;6287;50.984;7.022;2022-10-10T12:13:52;2.13;;;1.40;;
12445;SDS011;6287;50.984;7.022;2022-10-10T12:16:48;1.58;;;1.10;;
12445;SDS011;6287;50.984;7.022;2022-10-10T12:19:30;2.80;;;1.52;;
12445;SDS011;6287;50.984;7.022;2022-10-10T12:22:24;1.63;;;1.13;;
12445;SDS011;6287;50.984;7.022;2022-10-10T12:28:23;4.40;;;1.23;;
12445;SDS011;6287;50.984;7.022;2022-10-10T12:31:37;3.00;;;1.33;;
12445;SDS011;6287;50.984;7.022;2022-10-10T12:37:32;3.30;;;1.40;;
12445;SDS011;6287;50.984;7.022;2022-10-10T12:45:55;1.25;;;1.15;;
12445;SDS011;6287;50.984;7.022;2022-10-10T12:48:39;4.47;;;1.20;;
12445;SDS011;6287;50.984;7.022;2022-10-10T12:51:12;8.20;;;1.30;;
12445;SDS011;6287;50.984;7.022;2022-10-10T12:53:45;2.70;;;1.20;;
12445;SDS011;6287;50.984;7.022;2022-10-10T12:57:07;2.03;;;1.20;;
12445;SDS011;6287;50.984;7.022;2022-10-10T13:03:00;2.47;;;1.15;;
12445;SDS011;6287;50.984;7.022;2022-10-10T13:06:39;1.58;;;1.20;;
12445;SDS011;6287;50.984;7.022;2022-10-10T13:10:28;0.98;;;0.90;;
12445;SDS011;6287;50.984;7.022;2022-10-10T13:14:01;4.50;;;1.15;;
12445;SDS011;6287;50.984;7.022;2022-10-10T13:20:00;1.80;;;1.48;;
12445;SDS011;6287;50.984;7.022;2022-10-10T13:23:03;1.95;;;1.38;;
12445;SDS011;6287;50.984;7.022;2022-10-10T13:25:36;2.75;;;1.10;;
12445;SDS011;6287;50.984;7.022;2022-10-10T13:28:27;3.10;;;1.15;;
12445;SDS011;6287;50.984;7.022;2022-10-10T13:30:55;3.28;;;1.23;;
12445;SDS011;6287;50.984;7.022;2022-10-10T13:33:22;1.92;;;1.30;;
12445;SDS011;6287;50.984;7.022;2022-10-10T13:36:14;1.65;;;1.08;;
12445;SDS011;6287;50.984;7.022;2022-10-10T13:39:14;3.30;;;1.33;;
12445;SDS011;6287;50.984;7.022;2022-10-10T13:42:18;1.42;;;1.30;;
12445;SDS011;6287;50.984;7.022;2022-10-10T13:45:37;4.00;;;1.23;;
12445;SDS011;6287;50.984;7.022;2022-10-10T13:54:03;2.15;;;1.27;;
12445;SDS011;6287;50.984;7.022;2022-10-10T13:56:50;2.55;;;1.38;;
12445;SDS011;6287;50.984;7.022;2022-10-10T13:59:36;1.55;;;1.45;;
12445;SDS011;6287;50.984;7.022;2022-10-10T14:02:51;2.22;;;1.35;;
12445;SDS011;6287;50.984;7.022;2022-10-10T14:06:31;2.50;;;1.90;;
12445;SDS011;6287;50.984;7.022;2022-10-10T14:09:02;1.60;;;1.50;;
12445;SDS011;6287;50.984;7.022;2022-10-10T14:18:34;3.00;;;1.23;;
12445;SDS011;6287;50.984;7.022;2022-10-10T14:22:00;2.33;;;1.63;;
12445;SDS011;6287;50.984;7.022;2022-10-10T14:24:30;2.72;;;2.05;;
12445;SDS011;6287;50.984;7.022;2022-10-10T14:26:58;2.42;;;1.67;;
12445;SDS011;6287;50.984;7.022;2022-10-10T14:33:00;3.50;;;1.50;;
12445;SDS011;6287;50.984;7.022;2022-10-10T14:40:23;4.45;;;1.40;;
12445;SDS011;6287;50.984;7.022;2022-10-10T14:42:51;5.80;;;1.60;;
12445;SDS011;6287;50.984;7.022;2022-10-10T14:45:18;1.52;;;1.17;;
12445;SDS011;6287;50.984;7.022;2022-10-10T14:47:44;5.97;;;1.40;;
12445;SDS011;6287;50.984;7.022;2022-10-10T14:50:12;1.65;;;1.23;;
12445;SDS011;6287;50.984;7.022;2022-10-10T14:52:41;3.53;;;1.25;;
12445;SDS011;6287;50.984;7.022;2022-10-10T14:55:14;3.53;;;1.20;;
12445;SDS011;6287;50.984;7.022;2022-10-10T14:58:18;2.40;;;1.25;;
12445;SDS011;6287;50.984;7.022;2022-10-10T15:01:08;4.32;;;1.40;;
12445;SDS011;6287;50.984;7.022;2022-10-10T15:03:35;3.75;;;1.27;;
12445;SDS011;6287;50.984;7.022;2022-10-10T15:06:42;3.90;;;1.17;;
12445;SDS011;6287;50.984;7.022;2022-10-10T15:09:31;8.40;;;1.17;;
12445;SDS011;6287;50.984;7.022;2022-10-10T15:12:02;4.05;;;1.40;;
12445;SDS011;6287;50.984;7.022;2022-10-10T15:15:10;6.55;;;1.45;;
12445;SDS011;6287;50.984;7.022;2022-10-10T15:17:58;4.47;;;1.27;;
12445;SDS011;6287;50.984;7.022;2022-10-10T15:20:25;4.35;;;1.70;;
12445;SDS011;6287;50.984;7.022;2022-10-10T15:22:56;3.85;;;1.27;;
12445;SDS011;6287;50.984;7.022;2022-10-10T15:25:26;5.38;;;2.47;;
12445;SDS011;6287;50.984;7.022;2022-10-10T15:27:55;4.70;;;1.67;;
12445;SDS011;6287;50.984;7.022;2022-10-10T15:30:39;3.38;;;1.50;;
12445;SDS011;6287;50.984;7.022;2022-10-10T15:33:17;1.50;;;1.10;;
12445;SDS011;6287;50.984;7.022;2022-10-10T15:35:55;4.43;;;1.30;;
12445;SDS011;6287;50.984;7.022;2022-10-10T15:38:23;2.40;;;1.33;;
12445;SDS011;6287;50.984;7.022;2022-10-10T15:40:59;9.40;;;1.55;;
12445;SDS011;6287;50.984;7.022;2022-10-10T15:43:40;4.53;;;1.60;;
12445;SDS011;6287;50.984;7.022;2022-10-10T15:46:10;3.30;;;1.50;;
12445;SDS011;6287;50.984;7.022;2022-10-10T15:48:40;3.85;;;1.30;;
12445;SDS011;6287;50.984;7.022;2022-10-10T15:51:08;5.03;;;1.45;;
12445;SDS011;6287;50.984;7.022;2022-10-10T15:53:34;3.92;;;1.80;;
12445;SDS011;6287;50.984;7.022;2022-10-10T15:56:04;2.55;;;1.52;;
12445;SDS011;6287;50.984;7.022;2022-10-10T15:58:32;3.90;;;1.52;;
12445;SDS011;6287;50.984;7.022;2022-10-10T16:00:58;5.10;;;1.63;;
12445;SDS011;6287;50.984;7.022;2022-10-10T16:03:28;4.55;;;1.48;;
12445;SDS011;6287;50.984;7.022;2022-10-10T16:05:57;3.28;;;1.83;;
12445;SDS011;6287;50.984;7.022;2022-10-10T16:08:28;5.30;;;1.70;;
12445;SDS011;6287;50.984;7.022;2022-10-10T16:10:57;3.45;;;1.48;;
12445;SDS011;6287;50.984;7.022;2022-10-10T16:13:26;7.57;;;1.73;;
12445;SDS011;6287;50.984;7.022;2022-10-10T16:15:59;5.32;;;1.63;;
12445;SDS011;6287;50.984;7.022;2022-10-10T16:18:32;3.00;;;1.73;;
12445;SDS011;6287;50.984;7.022;2022-10-10T16:21:02;3.08;;;1.50;;
12445;SDS011;6287;50.984;7.022;2022-10-10T16:23:29;4.22;;;1.63;;
12445;SDS011;6287;50.984;7.022;2022-10-10T16:25:59;3.92;;;2.08;;
12445;SDS011;6287;50.984;7.022;2022-10-10T16:28:51;3.53;;;1.63;;
12445;SDS011;6287;50.984;7.022;2022-10-10T16:31:18;2.90;;;1.50;;
12445;SDS011;6287;50.984;7.022;2022-10-10T16:34:08;4.78;;;1.73;;
12445;SDS011;6287;50.984;7.022;2022-10-10T16:36:42;1.40;;;1.30;;
12445;SDS011;6287;50.984;7.022;2022-10-10T16:39:10;3.33;;;1.90;;
12445;SDS011;6287;50.984;7.022;2022-10-10T16:41:39;2.83;;;1.40;;
12445;SDS011;6287;50.984;7.022;2022-10-10T16:44:28;1.67;;;1.37;;
12445;SDS011;6287;50.984;7.022;2022-10-10T16:46:55;7.33;;;2.27;;
12445;SDS011;6287;50.984;7.022;2022-10-10T16:49:20;2.60;;;1.63;;
12445;SDS011;6287;50.984;7.022;2022-10-10T16:51:49;3.83;;;1.57;;
12445;SDS011;6287;50.984;7.022;2022-10-10T16:54:17;3.90;;;1.43;;
12445;SDS011;6287;50.984;7.022;2022-10-10T16:56:43;2.47;;;1.67;;
12445;SDS011;6287;50.984;7.022;2022-10-10T16:59:09;3.95;;;1.45;;
12445;SDS011;6287;50.984;7.022;2022-10-10T17:01:36;6.13;;;1.83;;
12445;SDS011;6287;50.984;7.022;2022-10-10T17:04:06;3.90;;;1.77;;
12445;SDS011;6287;50.984;7.022;2022-10-10T17:06:32;3.93;;;1.60;;
12445;SDS011;6287;50.984;7.022;2022-10-10T17:09:02;4.17;;;1.83;;
12445;SDS011;6287;50.984;7.022;2022-10-10T17:11:31;4.20;;;2.20;;
12445;SDS011;6287;50.984;7.022;2022-10-10T17:13:58;3.33;;;1.70;;
12445;SDS011;6287;50.984;7.022;2022-10-10T17:16:26;5.37;;;1.50;;
12445;SDS011;6287;50.984;7.022;2022-10-10T17:18:53;2.20;;;1.60;;
12445;SDS011;6287;50.984;7.022;2022-10-10T17:21:20;4.87;;;2.03;;
12445;SDS011;6287;50.984;7.022;2022-10-10T17:23:48;3.73;;;1.70;;
12445;SDS011;6287;50.984;7.022;2022-10-10T17:26:18;3.27;;;1.77;;
12445;SDS011;6287;50.984;7.022;2022-10-10T17:28:55;2.53;;;1.60;;
12445;SDS011;6287;50.984;7.022;2022-10-10T17:31:22;4.13;;;1.90;;
12445;SDS011;6287;50.984;7.022;2022-10-10T17:33:49;2.20;;;1.90;;
12445;SDS011;6287;50.984;7.022;2022-10-10T17:36:20;2.83;;;1.97;;
12445;SDS011;6287;50.984;7.022;2022-10-10T17:38:47;4.37;;;2.23;;
12445;SDS011;6287;50.984;7.022;2022-10-10T17:41:16;2.20;;;1.90;;
12445;SDS011;6287;50.984;7.022;2022-10-10T17:43:46;2.37;;;1.93;;
12445;SDS011;6287;50.984;7.022;2022-10-10T17:46:16;3.80;;;2.40;;
12445;SDS011;6287;50.984;7.022;2022-10-10T17:48:52;2.27;;;2.07;;
12445;SDS011;6287;50.984;7.022;2022-10-10T17:51:28;4.37;;;2.20;;
12445;SDS011;6287;50.984;7.022;2022-10-10T17:54:57;4.47;;;2.63;;
12445;SDS011;6287;50.984;7.022;2022-10-10T17:58:44;5.07;;;2.50;;
12445;SDS011;6287;50.984;7.022;2022-10-10T18:01:54;5.80;;;2.80;;